Time;durP1;ratioP1;P1;durP2;ratioP2;P2;SDS_P1;SDS_P2;PMS_P1;PMS_P2;Temp;Humidity;BMP_temperature;BMP_pressure;BME280_temperature;BME280_humidity;BME280_pressure;Samples;Min_cycle;Max_cycle;Signal;HPM_P1;HPM_P2
2021/07/16 00:02:18;;;;;;;210.23;199.75;;;21.70;90.10;;;;;;5029227;28;20037;-78
2021/07/16 00:04:44;;;;;;;223.70;212.60;;;21.70;90.10;;;;;;5027644;28;20026;-78
2021/07/16 00:07:09;;;;;;;230.88;219.32;;;21.80;90.00;;;;;;5011103;28;20160;-77
2021/07/16 00:09:36;;;;;;;229.73;217.35;;;21.80;89.90;;;;;;5028729;28;20021;-78
2021/07/16 00:12:01;;;;;;;244.77;232.55;;;21.70;89.70;;;;;;5027415;28;20029;-78
2021/07/16 00:14:27;;;;;;;201.57;191.48;;;21.70;89.70;;;;;;5010998;28;20035;-78
2021/07/16 00:16:54;;;;;;;218.85;207.88;;;21.60;89.70;;;;;;5028640;28;20029;-79
2021/07/16 00:19:20;;;;;;;168.98;160.52;;;21.50;89.60;;;;;;5028696;28;20029;-78
2021/07/16 00:21:46;;;;;;;148.85;141.05;;;21.50;89.70;;;;;;5028567;28;20033;-78
2021/07/16 00:24:12;;;;;;;139.95;132.55;;;21.40;89.90;;;;;;5028513;28;20037;-78
2021/07/16 00:26:38;;;;;;;137.95;130.80;;;21.30;90.00;;;;;;5028379;28;20037;-79
2021/07/16 00:29:04;;;;;;;104.75;99.40;;;21.30;90.10;;;;;;5028514;28;20033;-78
2021/07/16 00:31:30;;;;;;;87.18;82.38;;;21.30;90.10;;;;;;5028294;28;20376;-77
2021/07/16 00:33:56;;;;;;;93.10;87.78;;;21.20;90.20;;;;;;5026932;28;20536;-77
2021/07/16 00:36:22;;;;;;;69.00;65.20;;;21.20;90.30;;;;;;5027034;28;20132;-77
2021/07/16 00:38:49;;;;;;;83.32;78.57;;;21.10;90.30;;;;;;5028261;28;20029;-78
2021/07/16 00:41:15;;;;;;;1999.90;999.90;;;21.10;90.40;;;;;;5026938;28;20059;-78
2021/07/16 00:43:40;;;;;;;79.78;75.40;;;21.00;90.40;;;;;;5009861;28;20476;-78
2021/07/16 00:46:06;;;;;;;1517.85;766.92;;;21.00;90.50;;;;;;5028108;28;20114;-77
2021/07/16 00:48:32;;;;;;;557.25;304.38;;;21.00;90.60;;;;;;5027141;28;20045;-78
2021/07/16 00:50:58;;;;;;;84.18;79.68;;;21.00;90.80;;;;;;5026914;28;20037;-77
2021/07/16 00:53:24;;;;;;;1999.90;999.90;;;20.90;90.80;;;;;;5026801;28;20064;-78
2021/07/16 00:55:50;;;;;;;556.40;303.52;;;20.90;90.90;;;;;;5026700;28;20026;-78
2021/07/16 00:58:17;;;;;;;1526.65;775.30;;;20.90;91.10;;;;;;5027946;28;20026;-79
2021/07/16 01:00:43;;;;;;;1999.90;999.90;;;20.90;91.20;;;;;;5027851;28;20040;-78
2021/07/16 01:03:09;;;;;;;1999.90;999.90;;;21.00;91.50;;;;;;5027884;28;20392;-78
2021/07/16 01:05:35;;;;;;;101.03;95.85;;;21.10;91.70;;;;;;5010055;28;20063;-78
2021/07/16 01:08:02;;;;;;;115.57;109.65;;;21.30;91.80;;;;;;5027885;28;20481;-77
2021/07/16 01:10:30;;;;;;;126.50;120.30;;;21.30;91.90;;;;;;5026419;28;20044;-79
2021/07/16 01:12:56;;;;;;;175.48;166.30;;;21.40;91.90;;;;;;5027754;28;20026;-78
2021/07/16 01:15:25;;;;;;;222.48;211.00;;;21.50;91.90;;;;;;5027739;28;20030;-77
2021/07/16 01:17:51;;;;;;;243.07;230.55;;;21.60;91.90;;;;;;5026363;28;20025;-77
2021/07/16 01:20:23;;;;;;;269.40;255.68;;;21.60;91.90;;;;;;5026350;28;20029;-78
2021/07/16 01:22:49;;;;;;;317.83;301.95;;;21.70;91.90;;;;;;5027610;28;20025;-77
2021/07/16 01:25:18;;;;;;;309.33;293.48;;;21.70;91.80;;;;;;5026317;28;20040;-77
2021/07/16 01:27:48;;;;;;;329.65;312.90;;;21.80;91.80;;;;;;5026031;28;20042;-77
2021/07/16 01:30:17;;;;;;;342.83;325.55;;;21.90;91.70;;;;;;5026272;28;20411;-79
2021/07/16 01:32:43;;;;;;;304.38;288.88;;;21.90;91.60;;;;;;5027308;28;20028;-79
2021/07/16 01:35:10;;;;;;;335.13;318.30;;;21.90;91.50;;;;;;5026424;28;20383;-78
2021/07/16 01:37:36;;;;;;;308.55;292.77;;;22.00;91.50;;;;;;5027448;28;20435;-79
2021/07/16 01:40:08;;;;;;;300.40;285.15;;;21.90;91.40;;;;;;5027567;28;20029;-77
2021/07/16 01:42:45;;;;;;;269.30;255.85;;;21.90;91.30;;;;;;5025954;28;20025;-78
2021/07/16 01:45:18;;;;;;;258.25;245.50;;;21.90;91.30;;;;;;5027381;28;20040;-77
2021/07/16 01:47:52;;;;;;;269.90;256.42;;;21.80;91.20;;;;;;5027473;28;20104;-79
2021/07/16 01:50:19;;;;;;;267.65;254.43;;;21.90;91.20;;;;;;5027670;28;20028;-78
2021/07/16 01:52:46;;;;;;;276.42;262.58;;;21.90;91.10;;;;;;5025843;28;20028;-78
2021/07/16 01:55:13;;;;;;;245.57;233.38;;;21.80;91.00;;;;;;5029738;28;20047;-78
2021/07/16 01:57:39;;;;;;;287.23;272.45;;;21.80;91.00;;;;;;5029874;28;20021;-77
2021/07/16 02:00:12;;;;;;;271.38;257.58;;;21.80;91.00;;;;;;5029929;28;20036;-78
2021/07/16 02:02:51;;;;;;;257.90;245.07;;;21.80;91.00;;;;;;5029744;28;20449;-76
2021/07/16 02:05:18;;;;;;;275.33;261.15;;;21.80;90.90;;;;;;5031179;28;20527;-78
2021/07/16 02:07:46;;;;;;;295.35;280.73;;;21.90;90.80;;;;;;5029852;28;20484;-79
2021/07/16 02:10:12;;;;;;;282.60;268.55;;;21.90;90.70;;;;;;5029756;28;20029;-79
2021/07/16 02:12:38;;;;;;;256.60;243.88;;;21.90;90.70;;;;;;5029569;28;20021;-78
2021/07/16 02:15:32;;;;;;;260.85;247.93;;;21.80;90.60;;;;;;5029696;28;20124;-77
2021/07/16 02:17:58;;;;;;;327.70;310.67;;;21.70;90.70;;;;;;5030063;28;20545;-78
2021/07/16 02:20:28;;;;;;;287.70;273.00;;;21.70;90.70;;;;;;5029537;28;20132;-77
2021/07/16 02:22:59;;;;;;;297.83;282.63;;;21.70;90.70;;;;;;5030875;28;20037;-79
2021/07/16 02:25:26;;;;;;;265.95;252.48;;;21.70;90.70;;;;;;5030899;28;20109;-79
2021/07/16 02:27:57;;;;;;;242.63;230.20;;;21.70;90.60;;;;;;5029326;28;20046;-78
2021/07/16 02:30:25;;;;;;;259.40;246.32;;;21.70;90.60;;;;;;5030499;28;20064;-77
2021/07/16 02:32:51;;;;;;;224.90;213.70;;;21.60;90.70;;;;;;5029392;28;20040;-77
2021/07/16 02:35:17;;;;;;;241.43;229.27;;;21.60;90.70;;;;;;5030604;28;20029;-78
2021/07/16 02:37:43;;;;;;;247.90;235.52;;;21.60;90.70;;;;;;5030590;28;20033;-77
2021/07/16 02:40:12;;;;;;;236.38;224.63;;;21.60;90.80;;;;;;5029232;28;20388;-77
2021/07/16 02:42:38;;;;;;;212.45;202.00;;;21.50;90.80;;;;;;5029020;28;20479;-78
2021/07/16 02:45:10;;;;;;;219.38;208.57;;;21.50;90.90;;;;;;5030474;28;20029;-76
2021/07/16 02:47:36;;;;;;;256.40;243.75;;;21.50;90.90;;;;;;5029002;28;20033;-80
2021/07/16 02:50:14;;;;;;;214.45;203.57;;;21.50;90.90;;;;;;5030235;28;20436;-75
2021/07/16 02:52:41;;;;;;;220.38;209.38;;;21.50;90.90;;;;;;5028921;28;20025;-79
2021/07/16 02:55:08;;;;;;;260.27;247.38;;;21.60;90.90;;;;;;5030260;28;20029;-77
2021/07/16 02:57:34;;;;;;;256.60;243.80;;;21.60;90.90;;;;;;5030111;28;20494;-77
2021/07/16 03:00:00;;;;;;;218.15;207.43;;;21.60;90.90;;;;;;5030084;28;20077;-79
2021/07/16 03:02:40;;;;;;;230.45;218.93;;;21.70;90.90;;;;;;5030043;28;20069;-79
2021/07/16 03:05:08;;;;;;;254.18;241.63;;;21.70;90.90;;;;;;5028032;28;20032;-77
2021/07/16 03:07:34;;;;;;;281.65;267.38;;;21.70;90.70;;;;;;5029879;28;20037;-78
2021/07/16 03:09:59;;;;;;;244.10;232.10;;;21.80;90.70;;;;;;5012278;28;20087;-78
2021/07/16 03:12:25;;;;;;;242.98;230.90;;;21.80;90.60;;;;;;5012046;28;20466;-78
2021/07/16 03:14:51;;;;;;;231.32;219.82;;;21.70;90.60;;;;;;5028561;28;20033;-77
2021/07/16 03:17:16;;;;;;;235.30;223.77;;;21.70;90.70;;;;;;5029815;28;20033;-79
2021/07/16 03:19:42;;;;;;;369.05;349.90;;;21.70;90.80;;;;;;5029799;28;20471;-77
2021/07/16 03:22:08;;;;;;;383.45;363.40;;;21.70;90.80;;;;;;5028398;28;20120;-78
2021/07/16 03:24:34;;;;;;;321.92;305.05;;;21.70;90.80;;;;;;5029807;28;20472;-79
2021/07/16 03:27:00;;;;;;;297.95;283.15;;;21.60;90.80;;;;;;5011587;28;20071;-78
2021/07/16 03:29:25;;;;;;;281.42;267.33;;;21.60;90.90;;;;;;5029509;28;20045;-79
2021/07/16 03:31:51;;;;;;;283.35;268.60;;;21.50;90.90;;;;;;5028148;28;20399;-78
2021/07/16 03:34:17;;;;;;;269.25;255.55;;;21.60;90.90;;;;;;5029592;28;20101;-78
2021/07/16 03:36:42;;;;;;;271.88;258.13;;;21.70;91.00;;;;;;5028192;28;20087;-78
2021/07/16 03:39:08;;;;;;;285.73;271.45;;;21.60;90.90;;;;;;5029875;28;20034;-79
2021/07/16 03:41:36;;;;;;;233.45;221.93;;;21.70;91.00;;;;;;5029284;28;20029;-78
2021/07/16 03:44:03;;;;;;;252.07;239.38;;;21.70;91.00;;;;;;5028005;28;20025;-79
2021/07/16 03:46:28;;;;;;;287.85;273.77;;;21.70;91.00;;;;;;5011710;28;20064;-77
2021/07/16 03:48:57;;;;;;;262.38;249.25;;;21.70;90.90;;;;;;5011338;28;20072;-79
2021/07/16 03:51:23;;;;;;;255.85;243.13;;;21.80;90.90;;;;;;5027772;28;20028;-79
2021/07/16 03:53:49;;;;;;;264.05;250.98;;;21.70;90.90;;;;;;5029162;28;20128;-78
2021/07/16 03:56:15;;;;;;;257.92;245.05;;;21.70;90.90;;;;;;5029491;28;20477;-78
2021/07/16 03:58:42;;;;;;;234.93;223.35;;;21.70;90.90;;;;;;5027699;28;20475;-78
2021/07/16 04:01:07;;;;;;;263.10;249.82;;;21.80;90.90;;;;;;5028891;28;20021;-78
2021/07/16 04:03:33;;;;;;;341.17;323.65;;;21.80;90.90;;;;;;5029118;28;20034;-78
2021/07/16 04:05:59;;;;;;;289.77;275.38;;;21.80;90.80;;;;;;5011154;28;20059;-79
2021/07/16 04:08:24;;;;;;;293.73;279.02;;;21.80;90.90;;;;;;5028863;28;20358;-78
2021/07/16 04:10:50;;;;;;;317.00;300.95;;;21.80;90.90;;;;;;5027306;28;20262;-78
2021/07/16 04:13:16;;;;;;;373.80;354.20;;;21.80;90.90;;;;;;5028840;28;20025;-78
2021/07/16 04:15:43;;;;;;;395.15;374.23;;;21.80;90.90;;;;;;5027564;28;20116;-78
2021/07/16 04:18:09;;;;;;;379.65;359.73;;;21.70;91.00;;;;;;5027355;28;20029;-78
2021/07/16 04:20:39;;;;;;;363.70;344.48;;;21.70;91.20;;;;;;5028646;28;20042;-78
2021/07/16 04:23:06;;;;;;;373.83;353.92;;;21.60;91.30;;;;;;5028636;28;20118;-79
2021/07/16 04:25:32;;;;;;;365.48;346.17;;;21.60;91.40;;;;;;5028835;28;20025;-77
2021/07/16 04:27:59;;;;;;;359.27;340.58;;;21.50;91.50;;;;;;5028230;28;20037;-78
2021/07/16 04:30:25;;;;;;;340.38;322.50;;;21.50;91.50;;;;;;5026969;28;20826;-77
2021/07/16 04:32:53;;;;;;;335.92;318.35;;;21.50;91.80;;;;;;5010612;28;20029;-78
2021/07/16 04:35:19;;;;;;;356.58;338.08;;;21.50;91.60;;;;;;5026937;28;20028;-78
2021/07/16 04:37:45;;;;;;;374.83;355.42;;;21.50;91.60;;;;;;5028283;28;20637;-79
2021/07/16 04:40:15;;;;;;;385.88;365.45;;;21.50;91.60;;;;;;5028265;28;20075;-78
2021/07/16 04:42:41;;;;;;;;;;;21.50;91.60;;;;;;5028657;28;20060;-77
2021/07/16 04:45:07;;;;;;;336.83;319.63;;;21.50;91.50;;;;;;5028283;28;19952;-77
2021/07/16 04:47:33;;;;;;;363.35;344.55;;;21.50;91.50;;;;;;5028184;28;20419;-78
2021/07/16 04:49:58;;;;;;;321.67;305.08;;;21.60;91.60;;;;;;5026768;28;20040;-78
2021/07/16 04:52:24;;;;;;;372.33;352.65;;;21.60;91.70;;;;;;5026737;28;20026;-79
2021/07/16 04:54:50;;;;;;;365.15;345.92;;;21.60;91.70;;;;;;5028017;28;20378;-78
2021/07/16 04:57:16;;;;;;;388.85;368.40;;;21.60;91.70;;;;;;5028001;28;20068;-78
2021/07/16 04:59:41;;;;;;;372.88;353.55;;;21.60;91.70;;;;;;5026855;28;20048;-78
2021/07/16 05:02:07;;;;;;;329.90;313.15;;;21.60;91.60;;;;;;5026608;28;20492;-78
2021/07/16 05:04:34;;;;;;;279.95;266.02;;;21.60;91.50;;;;;;5027839;28;20033;-79
2021/07/16 05:07:00;;;;;;;275.15;261.02;;;21.70;91.40;;;;;;5027802;28;20025;-78
2021/07/16 05:09:25;;;;;;;262.85;249.95;;;21.70;91.30;;;;;;5026400;28;20038;-77
2021/07/16 05:11:52;;;;;;;273.55;259.33;;;21.70;91.30;;;;;;5026480;28;20416;-79
2021/07/16 05:14:18;;;;;;;275.48;261.95;;;21.70;91.20;;;;;;5026619;28;20068;-78
2021/07/16 05:16:44;;;;;;;272.23;258.63;;;21.70;91.20;;;;;;5027752;28;20415;-78
2021/07/16 05:19:10;;;;;;;413.38;391.15;;;21.70;91.10;;;;;;5026581;28;20035;-79
2021/07/16 05:21:35;;;;;;;428.50;405.13;;;21.70;91.00;;;;;;5027563;28;20025;-79
2021/07/16 05:24:01;;;;;;;411.17;389.17;;;21.70;91.00;;;;;;5026318;28;20044;-78
2021/07/16 05:26:27;;;;;;;427.35;403.30;;;21.80;91.00;;;;;;5026145;28;20030;-78
2021/07/16 05:28:53;;;;;;;404.10;382.48;;;21.80;90.90;;;;;;5025823;28;20046;-77
2021/07/16 05:31:19;;;;;;;475.05;447.80;;;21.80;90.90;;;;;;5009539;28;20048;-78
2021/07/16 05:33:45;;;;;;;341.60;324.38;;;21.80;90.90;;;;;;5026004;28;20111;-79
2021/07/16 05:36:12;;;;;;;439.08;415.13;;;21.80;90.90;;;;;;5026061;28;20033;-79
2021/07/16 05:38:37;;;;;;;382.67;362.55;;;21.80;90.90;;;;;;5026141;28;20096;-79
2021/07/16 05:41:07;;;;;;;411.67;389.42;;;21.80;90.90;;;;;;5026186;28;20022;-77
2021/07/16 05:43:34;;;;;;;334.38;317.75;;;21.80;90.90;;;;;;5026019;28;20030;-79
2021/07/16 05:46:00;;;;;;;361.92;342.85;;;21.80;90.90;;;;;;5026159;28;20030;-78
2021/07/16 05:48:26;;;;;;;437.05;412.95;;;21.90;90.90;;;;;;5027398;28;20637;-78
2021/07/16 05:50:52;;;;;;;787.25;731.03;;;21.90;90.90;;;;;;5025967;28;20191;-78
2021/07/16 05:53:19;;;;;;;521.08;489.23;;;21.90;90.80;;;;;;5025834;28;20045;-79
2021/07/16 05:55:45;;;;;;;546.25;510.15;;;21.90;90.80;;;;;;5027085;28;20067;-78
2021/07/16 05:58:11;;;;;;;395.88;371.30;;;22.00;90.70;;;;;;5027468;28;20254;-77
2021/07/16 06:00:37;;;;;;;1999.90;999.90;;;22.00;90.70;;;;;;5025800;28;20091;-78
2021/07/16 06:03:04;;;;;;;1999.90;999.90;;;22.00;90.60;;;;;;5027261;28;20108;-79
2021/07/16 06:05:31;;;;;;;1999.90;999.90;;;22.10;90.50;;;;;;5025779;28;20038;-78
2021/07/16 06:07:57;;;;;;;1999.90;999.90;;;22.20;90.40;;;;;;5027207;28;20113;-79
2021/07/16 06:10:23;;;;;;;1577.28;822.35;;;22.20;90.40;;;;;;5026902;28;20144;-78
2021/07/16 06:12:49;;;;;;;1999.90;999.90;;;22.20;90.30;;;;;;5026980;28;20034;-77
2021/07/16 06:15:14;;;;;;;1999.90;999.90;;;22.30;90.20;;;;;;5025773;28;20028;-78
2021/07/16 06:17:40;;;;;;;1999.90;999.90;;;22.30;90.20;;;;;;5025570;28;20072;-79
2021/07/16 06:20:08;;;;;;;1999.90;999.90;;;22.30;90.10;;;;;;5026891;28;20541;-78
2021/07/16 06:22:34;;;;;;;1614.05;854.83;;;22.40;90.10;;;;;;5026974;28;20045;-77
2021/07/16 06:25:00;;;;;;;1582.20;826.85;;;22.50;90.10;;;;;;5026735;28;20033;-79
2021/07/16 06:27:27;;;;;;;1999.90;999.90;;;22.60;90.10;;;;;;5025243;28;20063;-78
2021/07/16 06:29:52;;;;;;;1999.90;999.90;;;22.60;90.00;;;;;;5026842;28;20025;-76
2021/07/16 06:32:18;;;;;;;1999.90;999.90;;;22.70;89.90;;;;;;5026649;28;20048;-78
2021/07/16 06:34:44;;;;;;;1999.90;999.90;;;22.80;89.70;;;;;;5026907;28;20044;-78
2021/07/16 06:37:10;;;;;;;1556.78;803.92;;;22.80;89.50;;;;;;5026845;28;20500;-78
2021/07/16 06:39:36;;;;;;;1999.90;999.90;;;23.00;89.60;;;;;;5025618;28;20029;-79
2021/07/16 06:42:02;;;;;;;1999.90;999.90;;;23.10;89.20;;;;;;5028090;28;20060;-80
2021/07/16 06:44:28;;;;;;;1999.90;999.90;;;23.30;89.00;;;;;;5012533;28;20366;-79
2021/07/16 06:46:54;;;;;;;1999.90;999.90;;;23.50;88.60;;;;;;5030243;28;20033;-78
2021/07/16 06:49:26;;;;;;;1999.90;999.90;;;23.80;88.40;;;;;;5029843;28;20033;-78
2021/07/16 06:51:52;;;;;;;1999.90;999.90;;;24.30;87.50;;;;;;5028848;28;20037;-72
2021/07/16 06:54:17;;;;;;;1999.90;999.90;;;25.30;87.20;;;;;;5029950;28;20533;-77
2021/07/16 06:56:43;;;;;;;60.00;56.45;;;27.10;85.30;;;;;;5029538;28;20487;-77
2021/07/16 06:59:12;;;;;;;44.72;42.35;;;28.70;81.90;;;;;;5030062;28;20029;-78
2021/07/16 07:01:38;;;;;;;57.83;54.72;;;30.20;78.10;;;;;;5029944;28;20048;-75
2021/07/16 07:04:04;;;;;;;60.78;57.55;;;31.30;74.70;;;;;;5028512;28;20040;-76
2021/07/16 07:06:30;;;;;;;111.45;105.13;;;32.30;71.70;;;;;;5028602;28;20116;-77
2021/07/16 07:08:55;;;;;;;40.65;38.63;;;33.20;69.30;;;;;;5029763;28;20476;-77
2021/07/16 07:11:21;;;;;;;46.38;43.90;;;33.80;66.50;;;;;;5029468;28;20033;-76
2021/07/16 07:13:47;;;;;;;35.10;33.25;;;33.80;64.60;;;;;;5028153;28;20034;-76
2021/07/16 07:16:15;;;;;;;23.80;22.50;;;34.00;63.70;;;;;;5029631;28;20092;-76
2021/07/16 07:18:41;;;;;;;26.57;24.93;;;34.20;62.60;;;;;;5029365;28;20029;-77
2021/07/16 07:21:07;;;;;;;30.95;29.17;;;34.10;62.30;;;;;;5029258;28;20399;-77
2021/07/16 07:23:32;;;;;;;35.55;33.70;;;34.40;62.10;;;;;;5029151;28;20025;-75
2021/07/16 07:25:58;;;;;;;59.03;55.95;;;35.00;61.60;;;;;;5029502;28;20037;-77
2021/07/16 07:28:24;;;;;;;204.40;194.23;;;35.70;60.20;;;;;;5029315;28;20060;-76
2021/07/16 07:30:50;;;;;;;333.35;316.85;;;36.40;59.20;;;;;;5027747;28;20423;-76
2021/07/16 07:33:15;;;;;;;401.60;380.25;;;37.00;57.90;;;;;;5027910;28;20029;-76
2021/07/16 07:35:41;;;;;;;419.67;397.10;;;37.10;56.50;;;;;;5028133;28;20269;-74
2021/07/16 07:38:07;;;;;;;346.67;329.13;;;37.30;56.10;;;;;;5029159;28;20036;-77
2021/07/16 07:40:33;;;;;;;326.67;309.98;;;37.80;55.40;;;;;;5029118;28;20104;-76
2021/07/16 07:43:03;;;;;;;259.35;246.45;;;38.30;54.50;;;;;;5029144;28;20030;-77
2021/07/16 07:45:29;;;;;;;51.03;48.22;;;38.50;54.10;;;;;;5028619;28;20022;-77
2021/07/16 07:47:55;;;;;;;83.30;79.03;;;38.60;53.50;;;;;;5028843;28;20025;-76
2021/07/16 07:50:21;;;;;;;78.55;74.65;;;39.00;53.00;;;;;;5027452;28;20429;-75
2021/07/16 07:52:48;;;;;;;70.97;67.43;;;39.20;52.10;;;;;;5028476;28;20048;-77
2021/07/16 07:55:16;;;;;;;44.53;42.03;;;39.30;51.60;;;;;;5028564;28;20032;-76
2021/07/16 07:57:42;;;;;;;170.33;161.93;;;39.60;51.10;;;;;;5027420;28;20033;-76
2021/07/16 08:00:12;;;;;;;95.45;90.38;;;39.80;50.80;;;;;;5028409;28;20392;-76
2021/07/16 08:02:38;;;;;;;202.10;191.60;;;40.00;50.10;;;;;;5027042;28;20028;-76
2021/07/16 08:05:04;;;;;;;169.30;160.93;;;40.10;49.60;;;;;;5028731;28;20052;-77
2021/07/16 08:07:30;;;;;;;94.63;89.63;;;40.40;49.40;;;;;;5028436;28;20033;-78
2021/07/16 08:09:57;;;;;;;53.90;51.20;;;40.80;49.10;;;;;;5028386;28;20107;-76
2021/07/16 08:12:23;;;;;;;50.30;47.08;;;41.10;48.40;;;;;;5028354;28;20029;-77
2021/07/16 08:14:48;;;;;;;53.92;50.85;;;41.50;48.10;;;;;;5028664;28;20117;-77
2021/07/16 08:17:14;;;;;;;68.43;64.97;;;41.90;47.60;;;;;;5026851;28;20040;-77
2021/07/16 08:19:40;;;;;;;66.63;63.17;;;42.00;47.20;;;;;;5027004;28;20398;-76
2021/07/16 08:22:06;;;;;;;67.57;64.15;;;42.00;46.70;;;;;;5026687;28;20035;-76
2021/07/16 08:24:31;;;;;;;58.72;55.80;;;41.90;46.40;;;;;;5028108;28;20090;-76
2021/07/16 08:26:57;;;;;;;52.58;49.40;;;41.50;46.60;;;;;;5028242;28;20389;-77
2021/07/16 08:29:23;;;;;;;54.63;51.80;;;41.50;45.90;;;;;;5026398;28;20034;-76
2021/07/16 08:31:49;;;;;;;47.80;45.35;;;41.60;45.80;;;;;;5028086;28;20479;-77
2021/07/16 08:34:16;;;;;;;31.30;29.58;;;42.00;45.60;;;;;;5027917;28;20399;-75
2021/07/16 08:36:42;;;;;;;23.55;22.25;;;42.20;45.10;;;;;;5027518;28;20464;-76
2021/07/16 08:39:09;;;;;;;21.27;19.73;;;42.10;44.40;;;;;;5026526;28;20072;-78
2021/07/16 08:41:35;;;;;;;29.60;28.05;;;42.10;44.30;;;;;;5026403;28;20037;-75
2021/07/16 08:44:01;;;;;;;19.60;18.33;;;42.40;44.20;;;;;;5026431;28;20113;-77
2021/07/16 08:46:27;;;;;;;17.83;16.80;;;42.50;44.10;;;;;;5027612;28;20598;-77
2021/07/16 08:48:52;;;;;;;20.65;19.35;;;42.80;43.60;;;;;;5027678;28;20026;-76
2021/07/16 08:51:21;;;;;;;19.30;18.10;;;43.10;43.30;;;;;;5009461;28;20526;-77
2021/07/16 08:53:51;;;;;;;18.35;17.25;;;43.30;42.90;;;;;;5027378;28;20416;-77
2021/07/16 08:56:17;;;;;;;17.77;16.58;;;43.40;42.80;;;;;;5027129;28;20025;-77
2021/07/16 08:58:44;;;;;;;18.35;17.35;;;43.50;43.00;;;;;;5027383;28;20041;-77
2021/07/16 09:01:11;;;;;;;20.15;18.95;;;43.60;42.60;;;;;;5027249;28;20030;-76
2021/07/16 09:03:54;;;;;;;20.30;19.02;;;43.50;42.20;;;;;;5026779;28;20389;-76
2021/07/16 09:06:20;;;;;;;21.73;20.52;;;43.50;42.20;;;;;;5027946;28;20029;-74
2021/07/16 09:08:47;;;;;;;19.70;18.40;;;43.60;42.10;;;;;;5029122;28;20048;-76
2021/07/16 09:11:19;;;;;;;20.67;19.27;;;43.80;41.90;;;;;;5027355;28;20079;-77
2021/07/16 09:13:52;;;;;;;23.40;22.02;;;43.90;41.90;;;;;;5025849;28;20021;-76
2021/07/16 09:16:19;;;;;;;25.50;24.02;;;43.90;41.60;;;;;;5026862;28;20025;-78
2021/07/16 09:18:49;;;;;;;24.48;23.13;;;43.60;41.10;;;;;;5026505;28;20029;-77
2021/07/16 09:21:14;;;;;;;21.80;20.52;;;43.20;41.20;;;;;;5029309;28;20083;-76
2021/07/16 09:23:46;;;;;;;20.92;19.63;;;43.10;41.30;;;;;;5030126;28;20030;-79
2021/07/16 09:26:15;;;;;;;18.90;17.75;;;43.50;41.20;;;;;;5031495;28;20021;-76
2021/07/16 09:28:42;;;;;;;;;;;43.40;40.70;;;;;;5030671;28;20045;-78
2021/07/16 09:31:28;;;;;;;20.55;19.27;;;42.30;41.10;;;;;;5030635;28;20000;-76
2021/07/16 09:33:59;;;;;;;24.55;23.15;;;40.80;41.60;;;;;;5030494;28;20036;-77
2021/07/16 09:36:32;;;;;;;27.55;25.85;;;40.70;42.10;;;;;;5029729;28;20025;-77
2021/07/16 09:39:09;;;;;;;29.48;27.80;;;41.10;41.90;;;;;;5028798;28;20468;-76
2021/07/16 09:41:50;;;;;;;32.63;30.92;;;41.40;41.40;;;;;;5028058;28;20081;-78
2021/07/16 09:44:32;;;;;;;26.80;25.23;;;41.80;41.70;;;;;;5022405;28;20471;-76
2021/07/16 09:47:13;;;;;;;23.73;22.10;;;42.30;41.50;;;;;;5030489;28;20057;-77
2021/07/16 09:49:40;;;;;;;19.85;18.85;;;43.30;41.50;;;;;;5028466;28;20066;-78
2021/07/16 09:52:19;;;;;;;20.75;19.65;;;44.10;40.90;;;;;;5030109;28;20028;-76
2021/07/16 09:55:03;;;;;;;;;;;44.20;40.00;;;;;;5030598;28;20021;-77
2021/07/16 09:57:43;;;;;;;25.90;24.55;;;43.50;40.80;;;;;;5029289;28;19917;-72
2021/07/16 10:00:20;;;;;;;20.48;19.27;;;43.20;40.50;;;;;;5025005;28;20120;-77
2021/07/16 10:02:51;;;;;;;19.42;18.33;;;43.30;40.50;;;;;;5026978;28;20399;-77
2021/07/16 10:05:19;;;;;;;22.10;20.83;;;43.60;40.30;;;;;;5028660;28;20064;-80
2021/07/16 10:07:46;;;;;;;22.48;21.38;;;43.50;40.30;;;;;;5028161;28;20072;-79
2021/07/16 10:10:22;;;;;;;23.00;21.60;;;43.50;40.00;;;;;;5029218;28;20460;-79
2021/07/16 10:12:49;;;;;;;23.77;22.58;;;43.50;40.00;;;;;;5019470;28;20367;-76
2021/07/16 10:15:19;;;;;;;20.30;19.05;;;43.10;39.50;;;;;;5030528;28;20184;-77
2021/07/16 10:17:44;;;;;;;20.15;19.05;;;43.60;39.60;;;;;;5033181;28;20014;-78
2021/07/16 10:20:16;;;;;;;19.08;17.73;;;43.70;39.00;;;;;;5033281;28;20101;-76
2021/07/16 10:22:45;;;;;;;20.52;19.33;;;42.80;38.50;;;;;;5033517;28;20159;-79
2021/07/16 10:25:18;;;;;;;;;;;41.90;39.30;;;;;;5033562;28;20018;-77
2021/07/16 10:27:45;;;;;;;24.35;23.05;;;41.90;40.60;;;;;;5016105;28;19913;-77
2021/07/16 10:30:18;;;;;;;21.00;19.80;;;42.40;40.20;;;;;;5030810;28;20034;-75
2021/07/16 10:32:49;;;;;;;22.25;21.00;;;43.00;39.50;;;;;;5031578;28;20468;-79
2021/07/16 10:35:27;;;;;;;24.67;23.15;;;43.00;39.30;;;;;;5032241;28;20021;-76
2021/07/16 10:37:57;;;;;;;20.27;19.17;;;43.20;39.40;;;;;;5029483;28;20026;-77
2021/07/16 10:40:39;;;;;;;23.10;21.90;;;43.70;39.10;;;;;;5032730;28;20442;-77
2021/07/16 10:43:09;;;;;;;21.80;20.60;;;43.90;38.70;;;;;;5030841;28;20028;-78
2021/07/16 10:45:37;;;;;;;22.58;21.48;;;43.90;38.00;;;;;;5031287;28;20021;-79
2021/07/16 10:48:16;;;;;;;23.52;22.33;;;43.50;38.10;;;;;;5044109;28;20026;-76
2021/07/16 10:50:42;;;;;;;;;;;43.30;38.10;;;;;;5026433;28;20694;-75
2021/07/16 10:53:14;;;;;;;25.67;24.27;;;43.80;39.40;;;;;;5030275;28;20087;-77
2021/07/16 10:55:40;;;;;;;25.20;23.92;;;44.10;38.80;;;;;;5031146;28;20013;-76
2021/07/16 10:58:26;;;;;;;22.20;21.10;;;44.20;38.20;;;;;;5030633;28;20044;-78
2021/07/16 11:00:51;;;;;;;24.08;22.77;;;44.20;38.30;;;;;;5030735;28;20033;-78
2021/07/16 11:03:18;;;;;;;24.92;23.42;;;44.20;38.40;;;;;;5030834;28;20074;-77
2021/07/16 11:05:47;;;;;;;21.63;20.35;;;44.20;38.30;;;;;;5032071;28;20025;-77
2021/07/16 11:08:35;;;;;;;22.50;21.30;;;44.20;38.30;;;;;;5032406;28;20033;-79
2021/07/16 11:11:17;;;;;;;23.50;21.98;;;44.30;38.20;;;;;;5025691;28;20396;-80
2021/07/16 11:13:45;;;;;;;26.95;25.35;;;44.20;38.10;;;;;;5029638;28;20128;-78
2021/07/16 11:16:30;;;;;;;23.05;21.42;;;44.00;38.00;;;;;;5030347;28;20025;-77
2021/07/16 11:19:09;;;;;;;23.08;21.48;;;43.80;37.90;;;;;;5029033;28;20029;-77
2021/07/16 11:21:40;;;;;;;23.35;21.63;;;44.10;37.80;;;;;;5031055;28;20104;-78
2021/07/16 11:24:18;;;;;;;21.95;20.77;;;43.90;37.50;;;;;;5028313;28;20025;-78
2021/07/16 11:26:47;;;;;;;21.67;20.38;;;43.80;37.80;;;;;;5029609;28;20115;-77
2021/07/16 11:29:13;;;;;;;22.48;21.08;;;43.60;37.80;;;;;;5030665;28;20041;-79
2021/07/16 11:31:40;;;;;;;20.02;18.92;;;43.60;37.80;;;;;;5029945;28;20057;-79
2021/07/16 11:34:09;;;;;;;43.95;41.63;;;43.60;37.40;;;;;;5029132;28;20044;-81
2021/07/16 11:36:35;;;;;;;22.55;21.10;;;43.50;37.40;;;;;;5057151;28;20040;-80
2021/07/16 11:39:01;;;;;;;21.23;20.13;;;43.00;37.40;;;;;;5031034;28;20056;-77
2021/07/16 11:41:32;;;;;;;22.15;20.80;;;42.70;37.80;;;;;;5030852;28;20022;-79
2021/07/16 11:43:59;;;;;;;21.83;20.63;;;43.00;38.00;;;;;;5031102;28;20024;-79
2021/07/16 11:46:29;;;;;;;21.35;19.95;;;43.50;38.00;;;;;;5031473;28;20027;-81
2021/07/16 11:48:55;;;;;;;21.95;20.85;;;44.00;37.70;;;;;;5031146;28;20018;-78
2021/07/16 11:51:30;;;;;;;22.70;21.52;;;44.20;37.40;;;;;;5030741;28;20398;-79
2021/07/16 11:54:23;;;;;;;29.90;28.23;;;44.10;37.30;;;;;;5030647;28;20648;-78
2021/07/16 11:56:52;;;;;;;29.58;27.83;;;44.10;37.40;;;;;;5010298;28;20037;-79
2021/07/16 11:59:22;;;;;;;28.83;27.20;;;44.10;37.50;;;;;;5029580;28;20060;-78
2021/07/16 12:02:18;;;;;;;29.30;27.67;;;43.60;37.10;;;;;;5026762;28;20503;-79
2021/07/16 12:04:46;;;;;;;30.65;29.05;;;43.10;37.50;;;;;;5020674;28;20044;-79
2021/07/16 12:07:13;;;;;;;30.17;28.47;;;43.10;37.70;;;;;;5028891;28;20056;-78
2021/07/16 12:09:42;;;;;;;27.58;26.08;;;43.10;37.80;;;;;;5030360;28;20037;-78
2021/07/16 12:12:20;;;;;;;29.73;28.23;;;43.00;37.70;;;;;;5030586;28;20026;-79
2021/07/16 12:14:47;;;;;;;;;;;43.10;37.90;;;;;;5030740;28;20021;-78
2021/07/16 12:17:14;;;;;;;28.48;26.52;;;43.10;38.30;;;;;;5029690;28;19931;-79
2021/07/16 12:19:40;;;;;;;22.48;21.27;;;43.00;37.80;;;;;;5028722;28;20444;-77
2021/07/16 12:22:06;;;;;;;25.15;23.85;;;42.80;37.90;;;;;;5028703;28;20036;-78